• Join FlightAware (Why Join?)
  • Login
  • US Flag GB Flag 
23:36 EST


 

Airport Tracker/Info


-or-


 

Live Flight TrackerFlight Track Log ✈ SWA3943 ✈ 23-Apr-2013 ✈ KCMH - KBWI

Flight Track Log - Related Links

Times and Time Zones

All times are in EDT time to prevent confusion due to time zone crossing. See the SWA3943 flight status page for this flight to view local times or setup timezone preferences in your user account.

Time Position Orientation Groundspeed Altitude Reporting Facility
EDT Latitude Longitude Course Direction KTS MPH feet Rate Location/Type
20:22 40.0000 -82.9481 281° West 163 188 2,300  Level Indianapolis Center
20:23 39.9822 -82.9908 242° Southwest 217 250 3,900 2,333 Climbing Indianapolis Center
20:24 39.9433 -82.9533 144° Southeast 241 277 6,500 2,732 Climbing Indianapolis Center
20:25 39.9472 -82.8450 87° East 293 337 9,500 2,806 Climbing Indianapolis Center
20:26 39.9469 -82.7211 90° East 335 386 12,300 2,732 Climbing Indianapolis Center
20:27 39.9425 -82.5817 92° East 377 434 15,100 2,683 Climbing Indianapolis Center
20:28 39.9439 -82.4325 89° East 404 465 17,800 2,634 Climbing Indianapolis Center
20:29 39.9428 -82.2767 90° East 423 487 20,500 2,488 Climbing Indianapolis Center
20:30 39.9419 -82.1186 90° East 432 497 22,900 2,274 Climbing Indianapolis Center
20:31 39.9406 -81.9256 90° East 451 519 25,200 2,000 Climbing Indianapolis Center
20:32 39.9508 -81.7556 85° East 465 535 27,000 1,561 Climbing Indianapolis Center
20:33 39.9597 -81.5794 86° East 482 555 28,400 1,355 Climbing Indianapolis Center
20:34 39.9397 -81.4075 99° East 497 572 29,800 1,268 Climbing Indianapolis Center
20:35 39.9125 -81.2253 101° East 509 586 31,000 1,073 Climbing Indianapolis Center
20:37 39.8883 -81.0475 100° East 501 577 32,000 919 Climbing Indianapolis Center
20:38 39.8636 -80.8733 100° East 490 564 32,900 451 Climbing Indianapolis Center
20:39 39.8336 -80.6372 99° East 493 567 33,000 -137 Climbing Cleveland Center
20:40 39.8067 -80.4614 101° East 488 562 32,600 -700 Descending Cleveland Center
20:41 39.7792 -80.2886 102° East 488 562 31,600 -800 Descending Cleveland Center
20:42 39.7536 -80.1133 101° East 488 562 31,000 -300 Descending Cleveland Center
20:43 39.7256 -79.9408 102° East 488 562 31,000  Level Cleveland Center
20:44 39.7014 -79.7628 100° East 488 562 31,000  Level Cleveland Center
20:45 39.6731 -79.5933 102° East 488 562 31,000  Level Cleveland Center
20:45 39.6681 -79.5356 96° East 484 557 31,000  Level Washington Center
20:46 39.6381 -79.3614 103° East 491 565 31,000 -550 Level Washington Center
20:47 39.6103 -79.1822 101° East 491 565 29,900 -1,600 Descending Washington Center
20:48 39.5836 -79.0247 102° East 491 565 27,800 -2,250 Descending Washington Center
20:49 39.5569 -78.8592 102° East 480 552 25,400 -1,450 Descending Washington Center
20:50 39.5300 -78.6992 102° East 470 541 24,900 -1,300 Descending Washington Center
20:51 39.5025 -78.5394 103° East 457 526 22,800 -2,450 Descending Washington Center
20:52 39.4769 -78.3958 103° East 432 497 20,000 -3,100 Descending Washington Center
20:53 39.4531 -78.2469 102° East 421 484 16,600 -2,500 Descending Washington Center
20:54 39.4356 -78.1014 99° East 416 479 15,000 -800 Descending Washington Center
20:55 39.4383 -77.9564 89° East 410 472 15,000  Level Washington Center
20:56 39.4392 -77.8006 90° East 405 466 15,000 -550 Level Washington Center
20:57 39.4417 -77.6608 89° East 399 459 13,900 -1,300 Descending Washington Center
20:58 39.4417 -77.5344 90° East 376 433 12,400 -1,450 Descending Washington Center
20:59 39.4436 -77.4217 89° East 340 391 11,000 -700 Descending Washington Center
21:00 39.4514 -77.3089 85° East 319 367 11,000 -350 Level Washington Center
21:01 39.4656 -77.1964 81° East 311 358 10,300 -836 Descending Washington Center
21:02 39.4833 -77.0833 78° East 317 365 9,300 -984 Descending Potomac TRACON
21:03 39.4833 -76.9833 90° East 307 353 8,300 -1,050 Descending Potomac TRACON
21:04 39.4333 -76.9000 128° Southeast 292 336 7,200 -1,150 Descending Potomac TRACON
21:05 39.3833 -76.8167 128° Southeast 283 326 6,000 -1,400 Descending Potomac TRACON
21:06 39.3167 -76.7833 159° South 278 320 4,400 -1,550 Descending Potomac TRACON
21:07 39.2667 -76.8500 226° Southwest 259 298 2,900 -1,050 Descending Potomac TRACON
21:08 39.2167 -76.8000 142° Southeast 225 259 2,300 -650 Descending Potomac TRACON
21:09 39.1833 -76.7500 131° Southeast 142 163 1,600 -850 Descending Potomac TRACON
21:10 39.1833 -76.7167 90° East 119 137 600 -1,000 Descending Potomac TRACON
21:12 39.1667 -76.6667 142° Southeast  Level FlightAware Approximate
21:19 39.1754 -76.6683 142° Southeast  Level Estimated
21:20 39.1754 -76.6683 142° Southeast  Level Estimated
21:21 39.1754 -76.6683 142° Southeast  Level Estimated
21:22 39.1754 -76.6683 142° Southeast  Level Estimated